sensor_id;sensor_type;location;lat;lon;timestamp;P1;durP1;ratioP1;P2;durP2;ratioP2
24325;SDS011;12448;45.532;5.290;2023-03-14T00:00:51;6.43;;;0.88;;
24325;SDS011;12448;45.532;5.290;2023-03-14T00:03:17;2.00;;;0.65;;
24325;SDS011;12448;45.532;5.290;2023-03-14T00:05:43;0.90;;;0.70;;
24325;SDS011;12448;45.532;5.290;2023-03-14T00:08:08;1.40;;;0.80;;
24325;SDS011;12448;45.532;5.290;2023-03-14T00:10:35;1.15;;;0.70;;
24325;SDS011;12448;45.532;5.290;2023-03-14T00:13:01;1.75;;;0.90;;
24325;SDS011;12448;45.532;5.290;2023-03-14T00:15:31;1.13;;;0.90;;
24325;SDS011;12448;45.532;5.290;2023-03-14T00:18:01;1.88;;;0.90;;
24325;SDS011;12448;45.532;5.290;2023-03-14T00:20:30;1.05;;;0.70;;
24325;SDS011;12448;45.532;5.290;2023-03-14T00:22:56;1.45;;;0.70;;
24325;SDS011;12448;45.532;5.290;2023-03-14T00:25:31;2.58;;;0.90;;
24325;SDS011;12448;45.532;5.290;2023-03-14T00:28:09;0.63;;;0.60;;
24325;SDS011;12448;45.532;5.290;2023-03-14T00:30:36;0.55;;;0.50;;
24325;SDS011;12448;45.532;5.290;2023-03-14T00:33:02;1.33;;;0.60;;
24325;SDS011;12448;45.532;5.290;2023-03-14T00:35:28;0.60;;;0.60;;
24325;SDS011;12448;45.532;5.290;2023-03-14T00:37:53;0.88;;;0.63;;
24325;SDS011;12448;45.532;5.290;2023-03-14T00:40:19;2.15;;;0.60;;
24325;SDS011;12448;45.532;5.290;2023-03-14T00:42:45;0.60;;;0.57;;
24325;SDS011;12448;45.532;5.290;2023-03-14T00:45:13;0.50;;;0.50;;
24325;SDS011;12448;45.532;5.290;2023-03-14T00:47:38;0.82;;;0.60;;
24325;SDS011;12448;45.532;5.290;2023-03-14T00:50:05;0.75;;;0.57;;
24325;SDS011;12448;45.532;5.290;2023-03-14T00:52:31;1.73;;;0.70;;
24325;SDS011;12448;45.532;5.290;2023-03-14T00:54:57;1.00;;;0.70;;
24325;SDS011;12448;45.532;5.290;2023-03-14T00:57:23;2.10;;;0.50;;
24325;SDS011;12448;45.532;5.290;2023-03-14T00:59:48;0.70;;;0.50;;
24325;SDS011;12448;45.532;5.290;2023-03-14T01:02:15;1.75;;;0.73;;
24325;SDS011;12448;45.532;5.290;2023-03-14T01:04:41;1.38;;;0.60;;
24325;SDS011;12448;45.532;5.290;2023-03-14T01:07:08;0.50;;;0.50;;
24325;SDS011;12448;45.532;5.290;2023-03-14T01:09:33;0.70;;;0.63;;
24325;SDS011;12448;45.532;5.290;2023-03-14T01:11:59;1.17;;;0.80;;
24325;SDS011;12448;45.532;5.290;2023-03-14T01:14:25;0.77;;;0.70;;
24325;SDS011;12448;45.532;5.290;2023-03-14T01:16:50;2.63;;;0.70;;
24325;SDS011;12448;45.532;5.290;2023-03-14T01:19:16;1.27;;;0.60;;
24325;SDS011;12448;45.532;5.290;2023-03-14T01:21:42;1.38;;;0.57;;
24325;SDS011;12448;45.532;5.290;2023-03-14T01:24:10;4.30;;;0.80;;
24325;SDS011;12448;45.532;5.290;2023-03-14T01:26:37;2.63;;;0.60;;
24325;SDS011;12448;45.532;5.290;2023-03-14T01:29:02;0.98;;;0.65;;
24325;SDS011;12448;45.532;5.290;2023-03-14T01:31:29;2.33;;;0.80;;
24325;SDS011;12448;45.532;5.290;2023-03-14T01:33:54;2.28;;;0.50;;
24325;SDS011;12448;45.532;5.290;2023-03-14T01:36:20;0.60;;;0.50;;
24325;SDS011;12448;45.532;5.290;2023-03-14T01:38:46;0.63;;;0.50;;
24325;SDS011;12448;45.532;5.290;2023-03-14T01:41:14;0.55;;;0.55;;
24325;SDS011;12448;45.532;5.290;2023-03-14T01:43:41;1.23;;;0.60;;
24325;SDS011;12448;45.532;5.290;2023-03-14T01:51:06;1.27;;;0.65;;
24325;SDS011;12448;45.532;5.290;2023-03-14T01:53:36;0.75;;;0.52;;
24325;SDS011;12448;45.532;5.290;2023-03-14T01:56:03;2.47;;;0.68;;
24325;SDS011;12448;45.532;5.290;2023-03-14T01:58:29;2.95;;;0.60;;
24325;SDS011;12448;45.532;5.290;2023-03-14T02:00:59;0.50;;;0.50;;
24325;SDS011;12448;45.532;5.290;2023-03-14T02:03:27;1.20;;;0.77;;
24325;SDS011;12448;45.532;5.290;2023-03-14T02:05:56;1.20;;;0.50;;
24325;SDS011;12448;45.532;5.290;2023-03-14T02:08:29;1.85;;;0.63;;
24325;SDS011;12448;45.532;5.290;2023-03-14T02:10:56;0.95;;;0.60;;
24325;SDS011;12448;45.532;5.290;2023-03-14T02:13:22;1.33;;;0.80;;
24325;SDS011;12448;45.532;5.290;2023-03-14T02:15:48;0.73;;;0.60;;
24325;SDS011;12448;45.532;5.290;2023-03-14T02:18:14;1.83;;;0.60;;
24325;SDS011;12448;45.532;5.290;2023-03-14T02:20:53;2.60;;;0.60;;
24325;SDS011;12448;45.532;5.290;2023-03-14T02:24:04;5.53;;;0.70;;
24325;SDS011;12448;45.532;5.290;2023-03-14T02:26:28;1.13;;;0.40;;
24325;SDS011;12448;45.532;5.290;2023-03-14T02:29:00;1.85;;;0.60;;
24325;SDS011;12448;45.532;5.290;2023-03-14T02:31:26;0.65;;;0.40;;
24325;SDS011;12448;45.532;5.290;2023-03-14T02:33:52;0.82;;;0.70;;
24325;SDS011;12448;45.532;5.290;2023-03-14T02:36:19;0.82;;;0.60;;
24325;SDS011;12448;45.532;5.290;2023-03-14T02:41:31;1.38;;;0.70;;
24325;SDS011;12448;45.532;5.290;2023-03-14T02:43:57;1.65;;;0.52;;
24325;SDS011;12448;45.532;5.290;2023-03-14T02:46:23;0.80;;;0.52;;
24325;SDS011;12448;45.532;5.290;2023-03-14T02:49:01;1.40;;;0.60;;
24325;SDS011;12448;45.532;5.290;2023-03-14T02:51:29;2.13;;;0.57;;
24325;SDS011;12448;45.532;5.290;2023-03-14T02:53:55;2.25;;;0.60;;
24325;SDS011;12448;45.532;5.290;2023-03-14T02:56:30;1.08;;;0.70;;
24325;SDS011;12448;45.532;5.290;2023-03-14T02:58:55;2.78;;;0.60;;
24325;SDS011;12448;45.532;5.290;2023-03-14T03:01:23;1.25;;;0.60;;
24325;SDS011;12448;45.532;5.290;2023-03-14T03:03:52;2.55;;;1.20;;
24325;SDS011;12448;45.532;5.290;2023-03-14T03:06:18;1.70;;;0.50;;
24325;SDS011;12448;45.532;5.290;2023-03-14T03:08:44;2.92;;;0.70;;
24325;SDS011;12448;45.532;5.290;2023-03-14T03:11:10;2.88;;;0.77;;
24325;SDS011;12448;45.532;5.290;2023-03-14T03:13:36;0.93;;;0.60;;
24325;SDS011;12448;45.532;5.290;2023-03-14T03:16:02;3.05;;;0.80;;
24325;SDS011;12448;45.532;5.290;2023-03-14T03:18:28;1.52;;;0.60;;
24325;SDS011;12448;45.532;5.290;2023-03-14T03:21:03;1.40;;;0.60;;
24325;SDS011;12448;45.532;5.290;2023-03-14T03:23:30;1.23;;;0.65;;
24325;SDS011;12448;45.532;5.290;2023-03-14T03:26:00;0.88;;;0.50;;
24325;SDS011;12448;45.532;5.290;2023-03-14T03:28:27;1.15;;;0.68;;
24325;SDS011;12448;45.532;5.290;2023-03-14T03:30:53;2.67;;;0.60;;
24325;SDS011;12448;45.532;5.290;2023-03-14T03:33:19;2.60;;;0.70;;
24325;SDS011;12448;45.532;5.290;2023-03-14T03:35:51;3.25;;;0.60;;
24325;SDS011;12448;45.532;5.290;2023-03-14T03:38:17;2.67;;;0.85;;
24325;SDS011;12448;45.532;5.290;2023-03-14T03:40:45;2.38;;;0.80;;
24325;SDS011;12448;45.532;5.290;2023-03-14T03:43:10;1.52;;;0.77;;
24325;SDS011;12448;45.532;5.290;2023-03-14T03:45:36;2.35;;;0.75;;
24325;SDS011;12448;45.532;5.290;2023-03-14T03:48:02;3.90;;;0.90;;
24325;SDS011;12448;45.532;5.290;2023-03-14T03:50:28;1.98;;;0.90;;
24325;SDS011;12448;45.532;5.290;2023-03-14T03:52:54;1.00;;;0.70;;
24325;SDS011;12448;45.532;5.290;2023-03-14T03:55:19;1.77;;;0.65;;
24325;SDS011;12448;45.532;5.290;2023-03-14T03:57:45;2.83;;;0.60;;
24325;SDS011;12448;45.532;5.290;2023-03-14T04:00:10;2.92;;;0.70;;
24325;SDS011;12448;45.532;5.290;2023-03-14T04:02:37;0.73;;;0.60;;
24325;SDS011;12448;45.532;5.290;2023-03-14T04:05:03;1.42;;;0.60;;
24325;SDS011;12448;45.532;5.290;2023-03-14T04:07:31;1.10;;;0.70;;
24325;SDS011;12448;45.532;5.290;2023-03-14T04:09:57;2.58;;;0.60;;
24325;SDS011;12448;45.532;5.290;2023-03-14T04:12:23;2.38;;;0.77;;
24325;SDS011;12448;45.532;5.290;2023-03-14T04:14:48;2.63;;;0.60;;
24325;SDS011;12448;45.532;5.290;2023-03-14T04:17:14;1.73;;;0.70;;
24325;SDS011;12448;45.532;5.290;2023-03-14T04:20:06;3.28;;;0.52;;
24325;SDS011;12448;45.532;5.290;2023-03-14T04:22:36;0.77;;;0.43;;
24325;SDS011;12448;45.532;5.290;2023-03-14T04:25:20;1.98;;;0.70;;
24325;SDS011;12448;45.532;5.290;2023-03-14T04:27:47;1.23;;;0.70;;
24325;SDS011;12448;45.532;5.290;2023-03-14T04:30:13;1.77;;;0.77;;
24325;SDS011;12448;45.532;5.290;2023-03-14T04:32:39;1.40;;;0.70;;
24325;SDS011;12448;45.532;5.290;2023-03-14T04:35:05;3.15;;;0.85;;
24325;SDS011;12448;45.532;5.290;2023-03-14T04:37:31;1.42;;;0.63;;
24325;SDS011;12448;45.532;5.290;2023-03-14T04:39:57;2.20;;;0.68;;
24325;SDS011;12448;45.532;5.290;2023-03-14T04:42:22;2.80;;;0.80;;
24325;SDS011;12448;45.532;5.290;2023-03-14T04:44:48;3.25;;;0.70;;
24325;SDS011;12448;45.532;5.290;2023-03-14T04:47:15;3.38;;;0.93;;
24325;SDS011;12448;45.532;5.290;2023-03-14T04:49:40;4.13;;;0.90;;
24325;SDS011;12448;45.532;5.290;2023-03-14T04:52:06;3.63;;;1.00;;
24325;SDS011;12448;45.532;5.290;2023-03-14T04:54:32;1.38;;;0.80;;
24325;SDS011;12448;45.532;5.290;2023-03-14T04:56:57;1.55;;;0.82;;
24325;SDS011;12448;45.532;5.290;2023-03-14T04:59:23;1.45;;;0.90;;
24325;SDS011;12448;45.532;5.290;2023-03-14T05:01:52;3.60;;;1.02;;
24325;SDS011;12448;45.532;5.290;2023-03-14T05:04:20;1.85;;;0.77;;
24325;SDS011;12448;45.532;5.290;2023-03-14T05:06:49;1.58;;;0.52;;
24325;SDS011;12448;45.532;5.290;2023-03-14T05:09:15;1.75;;;0.80;;
24325;SDS011;12448;45.532;5.290;2023-03-14T05:11:40;3.90;;;0.82;;
24325;SDS011;12448;45.532;5.290;2023-03-14T05:14:06;4.95;;;1.10;;
24325;SDS011;12448;45.532;5.290;2023-03-14T05:16:32;4.38;;;0.80;;
24325;SDS011;12448;45.532;5.290;2023-03-14T05:18:57;1.65;;;0.70;;
24325;SDS011;12448;45.532;5.290;2023-03-14T05:21:23;4.18;;;0.70;;
24325;SDS011;12448;45.532;5.290;2023-03-14T05:23:49;3.78;;;0.50;;
24325;SDS011;12448;45.532;5.290;2023-03-14T05:26:14;2.55;;;0.77;;
24325;SDS011;12448;45.532;5.290;2023-03-14T05:28:42;2.28;;;0.73;;
24325;SDS011;12448;45.532;5.290;2023-03-14T05:31:08;3.60;;;0.68;;
24325;SDS011;12448;45.532;5.290;2023-03-14T05:33:34;4.20;;;0.75;;
24325;SDS011;12448;45.532;5.290;2023-03-14T05:36:00;1.65;;;0.65;;
24325;SDS011;12448;45.532;5.290;2023-03-14T05:38:25;3.40;;;0.60;;
24325;SDS011;12448;45.532;5.290;2023-03-14T05:40:51;4.40;;;0.80;;
24325;SDS011;12448;45.532;5.290;2023-03-14T05:43:16;2.15;;;0.82;;
24325;SDS011;12448;45.532;5.290;2023-03-14T05:45:42;2.78;;;0.68;;
24325;SDS011;12448;45.532;5.290;2023-03-14T05:48:08;3.47;;;0.85;;
24325;SDS011;12448;45.532;5.290;2023-03-14T05:50:33;1.48;;;0.60;;
24325;SDS011;12448;45.532;5.290;2023-03-14T05:52:59;1.83;;;0.70;;
24325;SDS011;12448;45.532;5.290;2023-03-14T05:55:25;2.65;;;0.93;;
24325;SDS011;12448;45.532;5.290;2023-03-14T05:57:50;1.50;;;0.60;;
24325;SDS011;12448;45.532;5.290;2023-03-14T06:00:26;3.00;;;0.90;;
24325;SDS011;12448;45.532;5.290;2023-03-14T06:02:55;2.75;;;0.85;;
24325;SDS011;12448;45.532;5.290;2023-03-14T06:05:20;1.38;;;0.60;;
24325;SDS011;12448;45.532;5.290;2023-03-14T06:07:46;1.90;;;0.63;;
24325;SDS011;12448;45.532;5.290;2023-03-14T06:10:12;4.20;;;0.70;;
24325;SDS011;12448;45.532;5.290;2023-03-14T06:12:37;3.78;;;0.60;;
24325;SDS011;12448;45.532;5.290;2023-03-14T06:15:03;3.97;;;0.60;;
24325;SDS011;12448;45.532;5.290;2023-03-14T06:17:29;3.92;;;0.55;;
24325;SDS011;12448;45.532;5.290;2023-03-14T06:19:55;2.55;;;0.60;;
24325;SDS011;12448;45.532;5.290;2023-03-14T06:22:21;1.85;;;0.60;;
24325;SDS011;12448;45.532;5.290;2023-03-14T06:24:46;4.82;;;0.90;;
24325;SDS011;12448;45.532;5.290;2023-03-14T06:27:12;2.65;;;0.88;;
24325;SDS011;12448;45.532;5.290;2023-03-14T06:29:37;2.00;;;0.63;;
24325;SDS011;12448;45.532;5.290;2023-03-14T06:32:03;2.75;;;0.88;;
24325;SDS011;12448;45.532;5.290;2023-03-14T06:34:30;3.80;;;0.73;;
24325;SDS011;12448;45.532;5.290;2023-03-14T06:36:55;0.77;;;0.65;;
24325;SDS011;12448;45.532;5.290;2023-03-14T06:39:21;4.30;;;0.65;;
24325;SDS011;12448;45.532;5.290;2023-03-14T06:41:47;1.75;;;0.70;;
24325;SDS011;12448;45.532;5.290;2023-03-14T06:44:12;2.00;;;0.80;;
24325;SDS011;12448;45.532;5.290;2023-03-14T06:46:38;1.60;;;0.90;;
24325;SDS011;12448;45.532;5.290;2023-03-14T06:49:03;5.25;;;1.23;;
24325;SDS011;12448;45.532;5.290;2023-03-14T06:51:29;2.05;;;0.63;;
24325;SDS011;12448;45.532;5.290;2023-03-14T06:53:55;2.38;;;0.90;;
24325;SDS011;12448;45.532;5.290;2023-03-14T06:56:20;1.42;;;0.65;;
24325;SDS011;12448;45.532;5.290;2023-03-14T06:58:46;1.73;;;0.80;;
24325;SDS011;12448;45.532;5.290;2023-03-14T07:01:15;5.28;;;0.80;;
24325;SDS011;12448;45.532;5.290;2023-03-14T07:03:47;3.70;;;0.80;;
24325;SDS011;12448;45.532;5.290;2023-03-14T07:06:13;2.58;;;0.90;;
24325;SDS011;12448;45.532;5.290;2023-03-14T07:08:38;2.40;;;0.70;;
24325;SDS011;12448;45.532;5.290;2023-03-14T07:11:04;3.90;;;1.20;;
24325;SDS011;12448;45.532;5.290;2023-03-14T07:13:30;4.75;;;0.90;;
24325;SDS011;12448;45.532;5.290;2023-03-14T07:15:56;2.45;;;0.77;;
24325;SDS011;12448;45.532;5.290;2023-03-14T07:18:21;2.22;;;0.75;;
24325;SDS011;12448;45.532;5.290;2023-03-14T07:20:47;1.80;;;0.60;;
24325;SDS011;12448;45.532;5.290;2023-03-14T07:23:12;5.80;;;0.88;;
24325;SDS011;12448;45.532;5.290;2023-03-14T07:25:38;3.13;;;0.77;;
24325;SDS011;12448;45.532;5.290;2023-03-14T07:28:04;3.42;;;0.93;;
24325;SDS011;12448;45.532;5.290;2023-03-14T07:30:30;4.03;;;0.88;;
24325;SDS011;12448;45.532;5.290;2023-03-14T07:32:55;3.15;;;0.80;;
24325;SDS011;12448;45.532;5.290;2023-03-14T07:35:21;4.85;;;1.15;;
24325;SDS011;12448;45.532;5.290;2023-03-14T07:37:47;5.65;;;1.10;;
24325;SDS011;12448;45.532;5.290;2023-03-14T07:40:12;3.03;;;0.90;;
24325;SDS011;12448;45.532;5.290;2023-03-14T07:42:40;7.50;;;1.33;;
24325;SDS011;12448;45.532;5.290;2023-03-14T07:45:06;5.13;;;1.15;;
24325;SDS011;12448;45.532;5.290;2023-03-14T07:47:33;5.93;;;0.80;;
24325;SDS011;12448;45.532;5.290;2023-03-14T07:49:58;6.07;;;0.98;;
24325;SDS011;12448;45.532;5.290;2023-03-14T07:52:24;5.47;;;1.20;;
24325;SDS011;12448;45.532;5.290;2023-03-14T07:54:50;2.58;;;1.00;;
24325;SDS011;12448;45.532;5.290;2023-03-14T07:57:15;4.00;;;0.93;;
24325;SDS011;12448;45.532;5.290;2023-03-14T07:59:41;3.30;;;0.90;;
24325;SDS011;12448;45.532;5.290;2023-03-14T08:02:09;1.55;;;0.82;;
24325;SDS011;12448;45.532;5.290;2023-03-14T08:04:37;7.40;;;1.20;;
24325;SDS011;12448;45.532;5.290;2023-03-14T08:07:04;5.43;;;1.20;;
24325;SDS011;12448;45.532;5.290;2023-03-14T08:09:30;4.53;;;1.27;;
24325;SDS011;12448;45.532;5.290;2023-03-14T08:11:55;9.05;;;1.50;;
24325;SDS011;12448;45.532;5.290;2023-03-14T08:14:21;5.55;;;1.73;;
24325;SDS011;12448;45.532;5.290;2023-03-14T08:16:48;5.55;;;1.10;;
24325;SDS011;12448;45.532;5.290;2023-03-14T08:19:15;7.65;;;1.40;;
24325;SDS011;12448;45.532;5.290;2023-03-14T08:21:41;5.18;;;0.90;;
24325;SDS011;12448;45.532;5.290;2023-03-14T08:24:12;5.13;;;1.05;;
24325;SDS011;12448;45.532;5.290;2023-03-14T08:26:41;3.78;;;1.02;;
24325;SDS011;12448;45.532;5.290;2023-03-14T08:29:16;4.15;;;1.17;;
24325;SDS011;12448;45.532;5.290;2023-03-14T08:31:48;6.82;;;1.02;;
24325;SDS011;12448;45.532;5.290;2023-03-14T08:34:17;2.78;;;1.00;;
24325;SDS011;12448;45.532;5.290;2023-03-14T08:36:49;4.53;;;1.05;;
24325;SDS011;12448;45.532;5.290;2023-03-14T08:39:15;6.82;;;1.25;;
24325;SDS011;12448;45.532;5.290;2023-03-14T08:41:40;4.25;;;1.30;;
24325;SDS011;12448;45.532;5.290;2023-03-14T08:44:07;5.70;;;1.30;;
24325;SDS011;12448;45.532;5.290;2023-03-14T08:46:34;3.88;;;0.80;;
24325;SDS011;12448;45.532;5.290;2023-03-14T08:49:00;3.38;;;1.10;;
24325;SDS011;12448;45.532;5.290;2023-03-14T08:51:26;3.97;;;1.23;;
24325;SDS011;12448;45.532;5.290;2023-03-14T08:53:51;11.23;;;1.90;;
24325;SDS011;12448;45.532;5.290;2023-03-14T08:56:17;4.93;;;1.38;;
24325;SDS011;12448;45.532;5.290;2023-03-14T08:58:42;3.10;;;1.40;;
24325;SDS011;12448;45.532;5.290;2023-03-14T09:01:09;3.85;;;1.02;;
24325;SDS011;12448;45.532;5.290;2023-03-14T09:03:35;3.28;;;1.60;;
24325;SDS011;12448;45.532;5.290;2023-03-14T09:06:05;2.22;;;1.20;;
24325;SDS011;12448;45.532;5.290;2023-03-14T09:08:32;3.42;;;1.30;;
24325;SDS011;12448;45.532;5.290;2023-03-14T09:10:58;4.28;;;1.25;;
24325;SDS011;12448;45.532;5.290;2023-03-14T09:13:24;3.05;;;0.90;;
24325;SDS011;12448;45.532;5.290;2023-03-14T09:15:50;1.65;;;1.00;;
24325;SDS011;12448;45.532;5.290;2023-03-14T09:18:17;3.63;;;1.15;;
24325;SDS011;12448;45.532;5.290;2023-03-14T09:20:42;2.72;;;1.10;;
24325;SDS011;12448;45.532;5.290;2023-03-14T09:23:08;3.55;;;1.30;;
24325;SDS011;12448;45.532;5.290;2023-03-14T09:25:34;1.25;;;0.70;;
24325;SDS011;12448;45.532;5.290;2023-03-14T09:27:59;2.83;;;1.10;;
24325;SDS011;12448;45.532;5.290;2023-03-14T09:30:25;1.02;;;0.77;;
24325;SDS011;12448;45.532;5.290;2023-03-14T09:32:51;2.50;;;0.90;;
24325;SDS011;12448;45.532;5.290;2023-03-14T09:35:16;1.15;;;0.50;;
24325;SDS011;12448;45.532;5.290;2023-03-14T09:37:42;2.30;;;0.80;;
24325;SDS011;12448;45.532;5.290;2023-03-14T09:40:11;1.02;;;0.63;;
24325;SDS011;12448;45.532;5.290;2023-03-14T09:42:38;3.50;;;0.82;;
24325;SDS011;12448;45.532;5.290;2023-03-14T09:45:06;2.05;;;0.55;;
24325;SDS011;12448;45.532;5.290;2023-03-14T09:47:38;3.60;;;0.82;;
24325;SDS011;12448;45.532;5.290;2023-03-14T09:50:05;4.28;;;0.90;;
24325;SDS011;12448;45.532;5.290;2023-03-14T09:52:38;3.45;;;0.85;;
24325;SDS011;12448;45.532;5.290;2023-03-14T09:55:14;7.28;;;1.17;;
24325;SDS011;12448;45.532;5.290;2023-03-14T09:57:43;3.28;;;0.90;;
24325;SDS011;12448;45.532;5.290;2023-03-14T10:02:45;4.82;;;1.15;;
24325;SDS011;12448;45.532;5.290;2023-03-14T10:05:24;6.43;;;1.27;;
24325;SDS011;12448;45.532;5.290;2023-03-14T10:07:52;4.80;;;0.90;;
24325;SDS011;12448;45.532;5.290;2023-03-14T10:10:19;4.15;;;1.45;;
24325;SDS011;12448;45.532;5.290;2023-03-14T10:12:47;3.13;;;1.63;;
24325;SDS011;12448;45.532;5.290;2023-03-14T10:17:50;5.85;;;1.27;;
24325;SDS011;12448;45.532;5.290;2023-03-14T10:20:30;5.63;;;1.38;;
24325;SDS011;12448;45.532;5.290;2023-03-14T10:25:40;16.75;;;7.07;;
24325;SDS011;12448;45.532;5.290;2023-03-14T10:28:22;7.88;;;3.22;;
24325;SDS011;12448;45.532;5.290;2023-03-14T10:30:52;6.10;;;2.10;;
24325;SDS011;12448;45.532;5.290;2023-03-14T10:33:32;9.63;;;2.65;;
24325;SDS011;12448;45.532;5.290;2023-03-14T10:36:27;15.70;;;6.95;;
24325;SDS011;12448;45.532;5.290;2023-03-14T10:41:43;7.50;;;3.28;;
24325;SDS011;12448;45.532;5.290;2023-03-14T10:44:18;6.07;;;1.92;;
24325;SDS011;12448;45.532;5.290;2023-03-14T10:46:53;3.50;;;2.03;;
24325;SDS011;12448;45.532;5.290;2023-03-14T10:49:29;12.77;;;6.63;;
24325;SDS011;12448;45.532;5.290;2023-03-14T10:52:00;18.35;;;9.85;;
24325;SDS011;12448;45.532;5.290;2023-03-14T10:54:48;35.55;;;21.17;;
24325;SDS011;12448;45.532;5.290;2023-03-14T10:57:22;16.20;;;9.25;;
24325;SDS011;12448;45.532;5.290;2023-03-14T11:00:05;39.97;;;25.15;;
24325;SDS011;12448;45.532;5.290;2023-03-14T11:06:00;38.63;;;26.27;;
24325;SDS011;12448;45.532;5.290;2023-03-14T11:09:23;7.78;;;3.80;;
24325;SDS011;12448;45.532;5.290;2023-03-14T11:12:31;11.68;;;6.88;;
24325;SDS011;12448;45.532;5.290;2023-03-14T11:24:56;10.82;;;7.47;;
24325;SDS011;12448;45.532;5.290;2023-03-14T11:27:44;3.75;;;2.65;;
24325;SDS011;12448;45.532;5.290;2023-03-14T11:41:39;6.40;;;1.55;;
24325;SDS011;12448;45.532;5.290;2023-03-14T11:44:53;12.57;;;8.48;;
24325;SDS011;12448;45.532;5.290;2023-03-14T11:47:09;3.92;;;1.33;;
24325;SDS011;12448;45.532;5.290;2023-03-14T12:09:43;3.97;;;1.10;;
24325;SDS011;12448;45.532;5.290;2023-03-14T12:22:13;6.90;;;1.15;;
24325;SDS011;12448;45.532;5.290;2023-03-14T12:49:10;12.32;;;9.82;;
24325;SDS011;12448;45.532;5.290;2023-03-14T13:16:35;5.70;;;1.85;;
24325;SDS011;12448;45.532;5.290;2023-03-14T13:19:49;9.13;;;1.88;;
24325;SDS011;12448;45.532;5.290;2023-03-14T13:25:38;4.60;;;1.50;;
24325;SDS011;12448;45.532;5.290;2023-03-14T13:28:21;10.05;;;6.40;;
24325;SDS011;12448;45.532;5.290;2023-03-14T13:31:25;13.77;;;4.40;;
24325;SDS011;12448;45.532;5.290;2023-03-14T13:34:14;12.23;;;6.82;;
24325;SDS011;12448;45.532;5.290;2023-03-14T13:37:25;13.68;;;8.77;;
24325;SDS011;12448;45.532;5.290;2023-03-14T13:40:18;10.30;;;5.75;;
24325;SDS011;12448;45.532;5.290;2023-03-14T13:43:27;20.85;;;15.27;;
24325;SDS011;12448;45.532;5.290;2023-03-14T13:47:14;30.08;;;19.27;;
24325;SDS011;12448;45.532;5.290;2023-03-14T13:49:41;13.20;;;6.22;;
24325;SDS011;12448;45.532;5.290;2023-03-14T13:52:29;10.73;;;4.05;;
24325;SDS011;12448;45.532;5.290;2023-03-14T13:55:16;10.65;;;2.00;;
24325;SDS011;12448;45.532;5.290;2023-03-14T13:57:54;9.20;;;1.17;;
24325;SDS011;12448;45.532;5.290;2023-03-14T14:04:20;9.52;;;2.78;;
24325;SDS011;12448;45.532;5.290;2023-03-14T14:07:20;2.42;;;0.82;;
24325;SDS011;12448;45.532;5.290;2023-03-14T14:10:29;8.27;;;1.50;;
24325;SDS011;12448;45.532;5.290;2023-03-14T14:13:04;13.15;;;9.15;;
24325;SDS011;12448;45.532;5.290;2023-03-14T14:15:57;14.85;;;8.02;;
24325;SDS011;12448;45.532;5.290;2023-03-14T14:18:28;7.45;;;2.55;;
24325;SDS011;12448;45.532;5.290;2023-03-14T14:20:56;9.80;;;3.75;;
24325;SDS011;12448;45.532;5.290;2023-03-14T14:23:26;28.58;;;16.90;;
24325;SDS011;12448;45.532;5.290;2023-03-14T14:25:54;13.20;;;4.68;;
24325;SDS011;12448;45.532;5.290;2023-03-14T14:28:38;10.90;;;4.50;;
24325;SDS011;12448;45.532;5.290;2023-03-14T14:34:46;6.60;;;2.20;;
24325;SDS011;12448;45.532;5.290;2023-03-14T14:37:25;11.60;;;4.95;;
24325;SDS011;12448;45.532;5.290;2023-03-14T14:39:53;9.15;;;3.08;;
24325;SDS011;12448;45.532;5.290;2023-03-14T14:42:31;8.63;;;1.48;;
24325;SDS011;12448;45.532;5.290;2023-03-14T14:48:10;9.50;;;2.72;;
24325;SDS011;12448;45.532;5.290;2023-03-14T14:51:03;10.18;;;3.50;;
24325;SDS011;12448;45.532;5.290;2023-03-14T14:53:40;5.10;;;1.90;;
24325;SDS011;12448;45.532;5.290;2023-03-14T14:56:18;5.40;;;1.90;;
24325;SDS011;12448;45.532;5.290;2023-03-14T14:59:25;6.18;;;1.60;;
24325;SDS011;12448;45.532;5.290;2023-03-14T15:02:58;4.00;;;1.10;;
24325;SDS011;12448;45.532;5.290;2023-03-14T15:05:23;2.65;;;1.00;;
24325;SDS011;12448;45.532;5.290;2023-03-14T15:08:08;8.88;;;1.33;;
24325;SDS011;12448;45.532;5.290;2023-03-14T15:10:41;6.63;;;1.35;;
24325;SDS011;12448;45.532;5.290;2023-03-14T15:13:55;6.38;;;1.10;;
24325;SDS011;12448;45.532;5.290;2023-03-14T15:16:02;6.55;;;1.48;;
24325;SDS011;12448;45.532;5.290;2023-03-14T15:18:28;4.95;;;1.20;;
24325;SDS011;12448;45.532;5.290;2023-03-14T15:20:55;7.00;;;1.42;;
24325;SDS011;12448;45.532;5.290;2023-03-14T15:23:21;6.60;;;1.70;;
24325;SDS011;12448;45.532;5.290;2023-03-14T15:25:47;9.18;;;1.60;;
24325;SDS011;12448;45.532;5.290;2023-03-14T15:28:18;6.43;;;1.67;;
24325;SDS011;12448;45.532;5.290;2023-03-14T15:30:49;6.50;;;1.38;;
24325;SDS011;12448;45.532;5.290;2023-03-14T15:33:17;6.18;;;1.83;;
24325;SDS011;12448;45.532;5.290;2023-03-14T15:36:06;9.18;;;1.60;;
24325;SDS011;12448;45.532;5.290;2023-03-14T15:39:21;8.52;;;3.00;;
24325;SDS011;12448;45.532;5.290;2023-03-14T15:42:01;6.38;;;1.40;;
24325;SDS011;12448;45.532;5.290;2023-03-14T15:44:35;7.18;;;1.60;;
24325;SDS011;12448;45.532;5.290;2023-03-14T15:47:08;8.15;;;2.92;;
24325;SDS011;12448;45.532;5.290;2023-03-14T15:49:41;12.52;;;9.25;;
24325;SDS011;12448;45.532;5.290;2023-03-14T15:52:42;5.32;;;1.40;;
24325;SDS011;12448;45.532;5.290;2023-03-14T15:55:37;12.05;;;7.18;;
24325;SDS011;12448;45.532;5.290;2023-03-14T16:04:16;8.27;;;2.13;;
24325;SDS011;12448;45.532;5.290;2023-03-14T16:07:05;10.02;;;3.00;;
24325;SDS011;12448;45.532;5.290;2023-03-14T16:09:31;9.00;;;2.13;;
24325;SDS011;12448;45.532;5.290;2023-03-14T16:11:56;8.23;;;3.58;;
24325;SDS011;12448;45.532;5.290;2023-03-14T16:14:22;11.43;;;5.25;;
24325;SDS011;12448;45.532;5.290;2023-03-14T16:16:48;15.80;;;7.20;;
24325;SDS011;12448;45.532;5.290;2023-03-14T16:19:14;4.82;;;2.13;;
24325;SDS011;12448;45.532;5.290;2023-03-14T16:22:06;12.52;;;4.05;;
24325;SDS011;12448;45.532;5.290;2023-03-14T16:24:37;10.60;;;3.40;;
24325;SDS011;12448;45.532;5.290;2023-03-14T16:27:05;8.60;;;5.13;;
24325;SDS011;12448;45.532;5.290;2023-03-14T16:29:41;7.22;;;2.90;;
24325;SDS011;12448;45.532;5.290;2023-03-14T16:32:07;8.40;;;3.35;;
24325;SDS011;12448;45.532;5.290;2023-03-14T16:34:34;11.40;;;4.63;;
24325;SDS011;12448;45.532;5.290;2023-03-14T16:37:04;23.10;;;11.68;;
24325;SDS011;12448;45.532;5.290;2023-03-14T16:39:29;6.78;;;3.70;;
24325;SDS011;12448;45.532;5.290;2023-03-14T16:41:56;10.70;;;2.80;;
24325;SDS011;12448;45.532;5.290;2023-03-14T16:44:23;15.50;;;10.27;;
24325;SDS011;12448;45.532;5.290;2023-03-14T16:46:49;20.20;;;10.88;;
24325;SDS011;12448;45.532;5.290;2023-03-14T16:49:14;13.57;;;6.63;;
24325;SDS011;12448;45.532;5.290;2023-03-14T16:51:44;8.88;;;3.60;;
24325;SDS011;12448;45.532;5.290;2023-03-14T16:54:09;9.38;;;2.97;;
24325;SDS011;12448;45.532;5.290;2023-03-14T16:56:47;12.25;;;2.72;;
24325;SDS011;12448;45.532;5.290;2023-03-14T16:59:17;22.13;;;9.82;;
24325;SDS011;12448;45.532;5.290;2023-03-14T17:01:43;26.52;;;10.93;;
24325;SDS011;12448;45.532;5.290;2023-03-14T17:04:09;19.48;;;5.30;;
24325;SDS011;12448;45.532;5.290;2023-03-14T17:06:35;29.38;;;23.23;;
24325;SDS011;12448;45.532;5.290;2023-03-14T17:09:06;19.58;;;12.15;;
24325;SDS011;12448;45.532;5.290;2023-03-14T17:11:55;9.55;;;4.65;;
24325;SDS011;12448;45.532;5.290;2023-03-14T17:15:11;7.25;;;4.05;;
24325;SDS011;12448;45.532;5.290;2023-03-14T17:17:56;9.15;;;3.60;;
24325;SDS011;12448;45.532;5.290;2023-03-14T17:20:31;7.10;;;2.25;;
24325;SDS011;12448;45.532;5.290;2023-03-14T17:22:58;7.72;;;2.00;;
24325;SDS011;12448;45.532;5.290;2023-03-14T17:25:23;7.05;;;2.30;;
24325;SDS011;12448;45.532;5.290;2023-03-14T17:27:49;4.70;;;1.73;;
24325;SDS011;12448;45.532;5.290;2023-03-14T17:30:15;10.30;;;1.98;;